• Join FlightAware (Why Join?)
  • Login
  • US Flag 
10:06PM EDT


 

Airport Tracker/Info


-or-


 

Live Flight TrackerFlight Track Log ✈ TAM3821 ✈ 12-Sep-2013 ✈ SBBR / BSB - SBGL / GIG

Flight Track Log - Related Links

Times and Time Zones

All times are in EDT time to prevent confusion due to time zone crossing. See the TAM3821 flight status page for this flight to view local times or setup timezone preferences in your user account.

Time Position Orientation Groundspeed Altitude Reporting Facility
EDT Latitude Longitude Course Direction KTS MPH feet Rate Location/Type
08:37AM -15.8630 -47.9190 63° Northeast 115 132  Level FlightAware
08:37AM -15.8620 -47.9010 87° East 162 186 3,600 5,820 Climbing FlightAware
08:38AM -15.8610 -47.8860 86° East 167 192 4,300 1,500 Climbing FlightAware
08:38AM -15.8600 -47.8720 86° East 185 213 4,500 1,020 Climbing FlightAware
08:38AM -15.8590 -47.8530 87° East 211 243 4,900 1,740 Climbing FlightAware
08:39AM -15.8570 -47.8260 86° East 230 265 5,800 2,640 Climbing FlightAware
08:39AM -15.8560 -47.8050 87° East 224 258 6,900 2,340 Climbing FlightAware
08:40AM -15.8670 -47.7720 109° East 251 289 7,900 1,680 Climbing FlightAware
08:40AM -15.8740 -47.7670 146° Southeast 262 302 8,000 1,560 Climbing FlightAware
08:40AM -15.8830 -47.7640 162° South 273 314 8,300 2,340 Climbing FlightAware
08:40AM -15.9100 -47.7570 166° South 284 327 9,100 2,340 Climbing FlightAware
08:41AM -15.9560 -47.7450 166° South 299 344 10,500 1,680 Climbing FlightAware
08:41AM -16.0070 -47.7310 165° South 340 391 11,100 1,620 Climbing FlightAware
08:42AM -16.0620 -47.7150 164° South 352 405 12,400 2,280 Climbing FlightAware
08:43AM -16.1140 -47.7000 165° South 360 414 13,700 2,640 Climbing FlightAware
08:43AM -16.1700 -47.6840 165° South 354 407 15,500 2,340 Climbing FlightAware
08:44AM -16.2330 -47.6660 165° South 369 425 16,600 2,400 Climbing FlightAware
08:44AM -16.2910 -47.6490 164° South 358 412 18,400 2,160 Climbing FlightAware
08:45AM -16.3430 -47.6340 165° South 368 423 19,100 1,500 Climbing FlightAware
08:45AM -16.3990 -47.6180 165° South 375 432 20,100 1,380 Climbing FlightAware
08:46AM -16.4560 -47.5950 159° South 386 444 20,800 1,380 Climbing FlightAware
08:47AM -16.5070 -47.5560 144° Southeast 396 456 21,700 1,500 Climbing FlightAware
08:47AM -16.5580 -47.5180 144° Southeast 405 466 22,400 1,080 Climbing FlightAware
08:48AM -16.6210 -47.4700 144° Southeast 419 482 23,100 480 Climbing FlightAware
08:49AM -16.6730 -47.4310 144° Southeast 420 483 23,100 1,260 Level FlightAware
08:49AM -16.7360 -47.3850 145° Southeast 429 494 24,800 2,520 Climbing FlightAware
08:49AM -16.7660 -47.3510 133° Southeast 437 503 25,400 1,920 Climbing FlightAware
08:50AM -16.7990 -47.2840 117° Southeast 437 503 26,500 1,320 Climbing FlightAware
08:51AM -16.8340 -47.2060 115° Southeast 449 517 27,100 960 Climbing FlightAware
08:51AM -16.8650 -47.1410 116° Southeast 455 524 27,700 900 Climbing FlightAware
08:52AM -16.9060 -47.0550 116° Southeast 462 532 28,300 540 Climbing FlightAware
08:53AM -16.9430 -46.9760 116° Southeast 465 535 28,500 1,200 Climbing FlightAware
08:53AM -16.9840 -46.8890 116° Southeast 458 527 30,100 4,140 Climbing FlightAware
08:54AM -16.9630 -46.9350 296° West 412 474 31,700 2,280 Climbing FlightAware
08:54AM -17.0070 -46.8900 136° Southeast 412 474 31,700  Level FlightAware
08:55AM -17.0500 -46.8470 136° Southeast 412 474 31,700 2,100 Level FlightAware
08:55AM -17.1360 -46.7950 150° Southeast 396 456 33,400 2,640 Climbing FlightAware
08:56AM -17.1890 -46.7640 151° Southeast 406 467 33,700 480 Climbing FlightAware
08:56AM -17.2490 -46.7290 151° Southeast 413 475 34,000 480 Climbing FlightAware
08:57AM -17.3070 -46.6950 151° Southeast 422 486 34,300 360 Climbing FlightAware
08:57AM -17.3720 -46.6570 151° Southeast 430 495 34,500 480 Climbing FlightAware
08:58AM -17.4280 -46.6240 151° Southeast 432 497 34,900 780 Climbing FlightAware
08:58AM -17.4890 -46.5880 151° Southeast 429 494 35,400 900 Climbing FlightAware
08:59AM -17.5440 -46.5560 151° Southeast 425 489 36,000 720 Climbing FlightAware
09:00AM -17.6100 -46.5160 150° Southeast 429 494 36,300 540 Climbing FlightAware
09:00AM -17.6810 -46.4740 151° Southeast 429 494 36,700 540 Climbing FlightAware
09:01AM -17.7410 -46.4390 151° Southeast 430 495 37,000 240 Climbing FlightAware
09:02AM -17.8120 -46.3980 151° Southeast 438 504 37,000  Level FlightAware
09:02AM -17.8640 -46.3670 150° Southeast 440 506 37,000  Level FlightAware
09:03AM -17.9300 -46.3280 151° Southeast 438 504 37,000  Level FlightAware
09:03AM -17.9910 -46.2910 150° Southeast 438 504 37,000  Level FlightAware
09:04AM -18.0450 -46.2600 151° Southeast 440 506 37,000  Level FlightAware
09:04AM -18.1140 -46.2190 151° Southeast 440 506 37,000  Level FlightAware
09:05AM -18.1800 -46.1800 151° Southeast 439 505 37,000  Level FlightAware
09:06AM -18.2500 -46.1380 150° Southeast 438 504 37,000  Level FlightAware
09:06AM -18.3130 -46.1000 150° Southeast 436 502 37,000  Level FlightAware
09:07AM -18.3730 -46.0650 151° Southeast 437 503 37,000  Level FlightAware
09:07AM -18.4310 -46.0300 150° Southeast 444 511 37,000  Level FlightAware
09:08AM -18.4860 -45.9970 150° Southeast 447 514 37,000  Level FlightAware
09:09AM -18.5700 -45.9470 151° Southeast 433 498 37,000  Level FlightAware
09:09AM -18.6310 -45.9110 151° Southeast 439 505 37,000  Level FlightAware
09:10AM -18.6920 -45.8750 151° Southeast 438 504 37,000  Level FlightAware
09:10AM -18.7580 -45.8350 150° Southeast 435 501 37,000  Level FlightAware
09:11AM -18.8210 -45.7970 150° Southeast 432 497 37,000  Level FlightAware
09:12AM -18.8800 -45.7610 150° Southeast 433 498 37,000 -360 Level FlightAware
09:12AM -18.9410 -45.7250 151° Southeast 437 503 36,600 -1,320 Descending FlightAware
09:13AM -19.0080 -45.6840 150° Southeast 426 490 35,400 -1,320 Descending FlightAware
09:13AM -19.0720 -45.6440 149° Southeast 416 479 35,000 -360 Descending FlightAware
09:14AM -19.1280 -45.6100 150° Southeast 422 486 35,000  Level FlightAware
09:15AM -19.1890 -45.5730 150° Southeast 426 490 35,000  Level FlightAware
09:15AM -19.2490 -45.5360 150° Southeast 424 488 35,000  Level FlightAware
09:16AM -19.3060 -45.5010 150° Southeast 425 489 35,000  Level FlightAware
09:17AM -19.4080 -45.4390 150° Southeast 422 486 35,000  Level FlightAware
09:17AM -19.4580 -45.4080 150° Southeast 419 482 35,000  Level FlightAware
09:18AM -19.5330 -45.3620 150° Southeast 415 478 35,000  Level FlightAware
09:19AM -19.6080 -45.3160 150° Southeast 410 472 35,000  Level FlightAware
09:19AM -19.6690 -45.2780 150° Southeast 409 471 35,000  Level FlightAware
09:20AM -19.7180 -45.2470 149° Southeast 412 474 35,000  Level FlightAware
09:21AM -19.7820 -45.2070 150° Southeast 414 476 35,000  Level FlightAware
09:21AM -19.8320 -45.1760 150° Southeast 414 476 35,000  Level FlightAware
09:22AM -19.8920 -45.1390 150° Southeast 416 479 35,000  Level FlightAware
09:22AM -19.9490 -45.1030 149° Southeast 416 479 35,000  Level FlightAware
09:23AM -20.0170 -45.0610 150° Southeast 416 479 35,000  Level FlightAware
09:24AM -20.0780 -45.0230 150° Southeast 416 479 35,000  Level FlightAware
09:24AM -20.1400 -44.9840 149° Southeast 415 478 35,000  Level FlightAware
09:25AM -20.1920 -44.9510 149° Southeast 415 478 35,000  Level FlightAware
09:25AM -20.2560 -44.9110 150° Southeast 416 479 35,000  Level FlightAware
09:26AM -20.3130 -44.8750 149° Southeast 417 480 35,000  Level FlightAware
09:26AM -20.3650 -44.8430 150° Southeast 418 481 35,000  Level FlightAware
09:27AM -20.4300 -44.8020 149° Southeast 421 484 35,000  Level FlightAware
09:28AM -20.4810 -44.7690 149° Southeast 423 487 35,000  Level FlightAware
09:28AM -20.5580 -44.7210 150° Southeast 424 488 35,000  Level FlightAware
09:29AM -20.6200 -44.6820 150° Southeast 424 488 35,000  Level FlightAware
09:30AM -20.6820 -44.6430 150° Southeast 423 487 35,000  Level FlightAware
09:30AM -20.7310 -44.6120 149° Southeast 422 486 35,000  Level FlightAware
09:31AM -20.7970 -44.5700 149° Southeast 421 484 35,000  Level FlightAware
09:31AM -20.8580 -44.5320 150° Southeast 421 484 35,000  Level FlightAware
09:32AM -20.9120 -44.4970 149° Southeast 420 483 35,000  Level FlightAware
09:33AM -20.9970 -44.4430 149° Southeast 418 481 35,000  Level FlightAware
09:33AM -21.0570 -44.4050 149° Southeast 416 479 35,000  Level FlightAware
09:34AM -21.1040 -44.3750 149° Southeast 414 476 35,000  Level FlightAware
09:34AM -21.1770 -44.3290 150° Southeast 411 473 35,000  Level FlightAware
09:35AM -21.2410 -44.2880 149° Southeast 408 470 35,000  Level FlightAware
09:36AM -21.2940 -44.2540 149° Southeast 404 465 35,000  Level FlightAware
09:36AM -21.3500 -44.2180 149° Southeast 402 463 35,000 -840 Level FlightAware
09:37AM -21.4000 -44.1860 149° Southeast 408 470 34,100 -3,180 Descending FlightAware
09:37AM -21.4610 -44.1470 149° Southeast 425 489 31,500 -3,720 Descending FlightAware
09:38AM -21.5190 -44.1090 149° Southeast 406 467 29,700 -2,880 Descending FlightAware
09:39AM -21.5840 -44.0670 149° Southeast 400 460 27,900 -2,400 Descending FlightAware
09:39AM -21.6180 -44.0450 149° Southeast 393 452 27,000 -1,860 Descending FlightAware
09:40AM -21.6990 -43.9920 149° Southeast 367 422 25,400 -1,860 Descending FlightAware
09:41AM -21.7440 -43.9630 149° Southeast 350 403 24,400 -2,460 Descending FlightAware
09:41AM -21.7910 -43.9320 149° Southeast 357 411 22,800 -2,520 Descending FlightAware
09:42AM -21.8450 -43.8970 149° Southeast 348 400 21,400 -1,980 Descending FlightAware
09:42AM -21.8910 -43.8670 149° Southeast 341 392 20,400 -1,860 Descending FlightAware
09:43AM -21.9330 -43.8400 149° Southeast 334 384 19,400 -1,320 Descending FlightAware
09:43AM -21.9750 -43.8130 149° Southeast 303 349 19,000 -1,620 Descending FlightAware
09:44AM -22.0220 -43.7820 149° Southeast 297 342 17,500 -2,100 Descending FlightAware
09:45AM -22.0620 -43.7560 149° Southeast 301 346 16,500 -1,680 Descending FlightAware
09:45AM -22.1060 -43.7270 149° Southeast 297 342 15,600 -1,380 Descending FlightAware
09:46AM -22.1450 -43.7020 149° Southeast 294 338 14,900 -1,320 Descending FlightAware
09:46AM -22.1880 -43.6740 149° Southeast 289 333 14,100 -1,320 Descending FlightAware
09:47AM -22.2240 -43.6500 148° Southeast 286 329 13,400 -1,320 Descending FlightAware
09:48AM -22.2650 -43.6230 149° Southeast 280 322 12,600 -1,260 Descending FlightAware
09:48AM -22.3060 -43.5960 149° Southeast 277 319 11,800 -1,440 Descending FlightAware
09:49AM -22.3500 -43.5670 149° Southeast 284 327 10,700 -1,620 Descending FlightAware
09:49AM -22.3890 -43.5460 154° Southeast 280 322 9,900 -1,560 Descending FlightAware
09:50AM -22.4200 -43.5550 195° South 283 326 9,300 -1,440 Descending FlightAware
09:50AM -22.4280 -43.5630 223° Southwest 279 321 9,200 -960 Descending FlightAware
09:50AM -22.4480 -43.5880 229° Southwest 274 315 8,800 -1,020 Descending FlightAware
09:51AM -22.4690 -43.6130 228° Southwest 270 311 8,400 -900 Descending FlightAware
09:51AM -22.4900 -43.6380 228° Southwest 258 297 8,100 -660 Descending FlightAware
09:51AM -22.5000 -43.6500 228° Southwest 257 296 7,900 -1,380 Descending FlightAware
09:52AM -22.5240 -43.6800 229° Southwest 262 302 7,100 -1,440 Descending FlightAware
09:52AM -22.5400 -43.6980 226° Southwest 259 298 6,800 -900 Descending FlightAware
09:53AM -22.5550 -43.7110 219° Southwest 254 292 6,500 -720 Descending FlightAware
09:53AM -22.5640 -43.7130 192° South 254 292 6,500 -420 Level FlightAware
09:53AM -22.5900 -43.7050 164° South 265 305 6,300 -600 Descending FlightAware
09:53AM -22.5970 -43.6960 130° Southeast 265 305 6,200 -720 Descending FlightAware
09:53AM -22.6020 -43.6880 124° Southeast 260 299 6,100 -780 Descending FlightAware
09:54AM -22.6170 -43.6620 122° Southeast 253 291 5,800 -780 Descending FlightAware
09:54AM -22.6290 -43.6400 121° Southeast 250 288 5,600 -600 Descending FlightAware
09:54AM -22.6370 -43.6270 124° Southeast 249 287 5,500 -480 Descending FlightAware
09:55AM -22.6510 -43.6030 122° Southeast 236 272 5,300 -480 Descending FlightAware
09:55AM -22.6600 -43.5870 121° Southeast 229 264 5,200 -420 Descending FlightAware
09:55AM -22.6790 -43.5550 123° Southeast 235 270 5,000 -600 Descending FlightAware
09:56AM -22.6910 -43.5340 122° Southeast 235 270 4,700 -660 Descending FlightAware
09:56AM -22.7030 -43.5100 118° Southeast 225 259 4,500 -600 Descending FlightAware
09:57AM -22.7130 -43.4910 120° Southeast 216 249 4,300 -960 Descending FlightAware
09:57AM -22.7210 -43.4500 102° East 197 227 3,700 -1,080 Descending FlightAware
09:57AM -22.7220 -43.4370 95° East 195 224 3,400 -1,500 Descending FlightAware
09:58AM -22.7230 -43.4160 93° East 204 235 2,800 -1,020 Descending FlightAware
09:58AM -22.7260 -43.3970 100° East 197 227 2,600 -720 Descending FlightAware
09:58AM -22.7350 -43.3810 121° Southeast 190 219 2,300 -840 Descending FlightAware
09:59AM -22.7430 -43.3680 124° Southeast 173 199 2,100 -660 Descending FlightAware
09:59AM -22.7520 -43.3550 127° Southeast 162 186 1,800 -840 Descending FlightAware
09:59AM -22.7600 -43.3430 126° Southeast 158 182 1,500 -900 Descending FlightAware
10:00AM -22.7700 -43.3280 126° Southeast 151 174 1,200 -660 Descending FlightAware
10:00AM -22.7780 -43.3160 126° Southeast 146 168 1,000 -1,080 Descending FlightAware
10:01AM -22.7940 -43.2910 125° Southeast 144 166 400 -1,080 Descending FlightAware
10:01AM -22.8040 -43.2770 128° Southeast 142 163 200 -540 Descending FlightAware
10:02AM -22.8130 -43.2630 125° Southeast 145 167 -420 Descending FlightAware
10:02AM -22.8220 -43.2490 125° Southeast 145 167  Level FlightAware
10:02AM -22.8200 -43.2520 306° West 142 163  Level FlightAware
10:03AM -22.8200 -43.2500 90° East 142 163  Level FlightAware
10:03AM -22.8200 -43.2490 90° East 142 163  Level FlightAware
10:04AM -22.8210 -43.2480 137° Southeast 142 163  Level FlightAware
10:04AM -22.8280 -43.2330 117° Southeast 142 163  Level FlightAware
10:04AM -22.8200 -43.2470 302° West 142 163  Level FlightAware
10:05AM -22.8040 -43.2420 137° Southeast 142 163  Level FlightAware
10:07AM -22.8089 -43.2436 16° North  Level Estimated
10:08AM -22.8089 -43.2436 137° Southeast  Level Estimated
10:09AM -22.8089 -43.2436 137° Southeast  Level Estimated
10:10AM -22.8089 -43.2436 137° Southeast  Level Estimated
10:11AM -22.8089 -43.2436 137° Southeast  Level Estimated
10:16AM -22.8150 -43.2480 207° Southwest 142 163  Level FlightAware
10:17AM -22.8020 -43.2440 16° North 142 163  Level FlightAware
10:17AM -22.8000 -43.2440 360° North 142 163  Level FlightAware